sensor_id;sensor_type;location;lat;lon;timestamp;pressure;altitude;pressure_sealevel;temperature;humidity
31538;BME280;18147;51.952;6.146;2022-12-10T00:00:32;100782.88;;;-3.07;100.00
31538;BME280;18147;51.952;6.146;2022-12-10T00:02:57;100788.09;;;-3.05;100.00
31538;BME280;18147;51.952;6.146;2022-12-10T00:05:23;100788.06;;;-3.02;100.00
31538;BME280;18147;51.952;6.146;2022-12-10T00:07:49;100790.81;;;-3.16;100.00
31538;BME280;18147;51.952;6.146;2022-12-10T00:10:14;100784.66;;;-3.12;100.00
31538;BME280;18147;51.952;6.146;2022-12-10T00:12:40;100784.88;;;-3.40;100.00
31538;BME280;18147;51.952;6.146;2022-12-10T00:15:05;100783.03;;;-3.27;100.00
31538;BME280;18147;51.952;6.146;2022-12-10T00:17:31;100788.19;;;-3.16;100.00
31538;BME280;18147;51.952;6.146;2022-12-10T00:19:56;100782.09;;;-3.15;100.00
31538;BME280;18147;51.952;6.146;2022-12-10T00:22:22;100786.50;;;-3.23;100.00
31538;BME280;18147;51.952;6.146;2022-12-10T00:24:47;100786.69;;;-3.48;100.00
31538;BME280;18147;51.952;6.146;2022-12-10T00:27:13;100790.19;;;-3.53;100.00
31538;BME280;18147;51.952;6.146;2022-12-10T00:29:39;100786.59;;;-3.35;100.00
31538;BME280;18147;51.952;6.146;2022-12-10T00:32:04;100787.44;;;-3.30;100.00
31538;BME280;18147;51.952;6.146;2022-12-10T00:34:31;100787.50;;;-3.40;100.00
31538;BME280;18147;51.952;6.146;2022-12-10T00:36:57;100792.72;;;-3.41;100.00
31538;BME280;18147;51.952;6.146;2022-12-10T00:39:22;100790.13;;;-3.47;100.00
31538;BME280;18147;51.952;6.146;2022-12-10T00:41:48;100790.09;;;-3.40;100.00
31538;BME280;18147;51.952;6.146;2022-12-10T00:44:15;100797.97;;;-3.46;100.00
31538;BME280;18147;51.952;6.146;2022-12-10T00:46:41;100802.31;;;-3.45;100.00
31538;BME280;18147;51.952;6.146;2022-12-10T00:49:07;100798.81;;;-3.41;100.00
31538;BME280;18147;51.952;6.146;2022-12-10T00:51:33;100801.41;;;-3.41;100.00
31538;BME280;18147;51.952;6.146;2022-12-10T00:53:59;100797.03;;;-3.39;100.00
31538;BME280;18147;51.952;6.146;2022-12-10T00:56:27;100796.22;;;-3.44;100.00
31538;BME280;18147;51.952;6.146;2022-12-10T00:58:53;100797.97;;;-3.46;100.00
31538;BME280;18147;51.952;6.146;2022-12-10T01:01:31;100810.16;;;-3.51;100.00
31538;BME280;18147;51.952;6.146;2022-12-10T01:04:03;100816.28;;;-3.55;100.00
31538;BME280;18147;51.952;6.146;2022-12-10T01:06:34;100811.06;;;-3.56;100.00
31538;BME280;18147;51.952;6.146;2022-12-10T01:09:03;100815.38;;;-3.51;100.00
31538;BME280;18147;51.952;6.146;2022-12-10T01:11:32;100811.84;;;-3.47;100.00
31538;BME280;18147;51.952;6.146;2022-12-10T01:13:59;100812.78;;;-3.51;100.00
31538;BME280;18147;51.952;6.146;2022-12-10T01:16:25;100809.22;;;-3.39;100.00
31538;BME280;18147;51.952;6.146;2022-12-10T01:18:57;100806.56;;;-3.34;100.00
31538;BME280;18147;51.952;6.146;2022-12-10T01:21:24;100818.69;;;-3.27;100.00
31538;BME280;18147;51.952;6.146;2022-12-10T01:23:51;100818.69;;;-3.27;100.00
31538;BME280;18147;51.952;6.146;2022-12-10T01:26:20;100812.63;;;-3.26;100.00
31538;BME280;18147;51.952;6.146;2022-12-10T01:28:46;100823.06;;;-3.31;100.00
31538;BME280;18147;51.952;6.146;2022-12-10T01:31:20;100818.75;;;-3.38;100.00
31538;BME280;18147;51.952;6.146;2022-12-10T01:33:46;100821.34;;;-3.36;100.00
31538;BME280;18147;51.952;6.146;2022-12-10T01:36:24;100820.41;;;-3.25;100.00
31538;BME280;18147;51.952;6.146;2022-12-10T01:38:49;100819.53;;;-3.27;100.00
31538;BME280;18147;51.952;6.146;2022-12-10T01:41:18;100827.47;;;-3.39;100.00
31538;BME280;18147;51.952;6.146;2022-12-10T01:43:56;100830.00;;;-3.31;100.00
31538;BME280;18147;51.952;6.146;2022-12-10T01:46:28;100827.44;;;-3.38;100.00
31538;BME280;18147;51.952;6.146;2022-12-10T01:48:56;100823.19;;;-3.46;100.00
31538;BME280;18147;51.952;6.146;2022-12-10T01:51:24;100826.56;;;-3.35;100.00
31538;BME280;18147;51.952;6.146;2022-12-10T01:53:50;100826.63;;;-3.41;100.00
31538;BME280;18147;51.952;6.146;2022-12-10T01:56:17;100832.81;;;-3.60;100.00
31538;BME280;18147;51.952;6.146;2022-12-10T01:58:43;100829.31;;;-3.55;100.00
31538;BME280;18147;51.952;6.146;2022-12-10T02:06:34;100836.25;;;-3.55;100.00
31538;BME280;18147;51.952;6.146;2022-12-10T02:12:02;100840.53;;;-3.48;100.00
31538;BME280;18147;51.952;6.146;2022-12-10T02:17:18;100833.56;;;-3.43;100.00
31538;BME280;18147;51.952;6.146;2022-12-10T02:22:20;100824.91;;;-3.48;100.00
31538;BME280;18147;51.952;6.146;2022-12-10T02:24:49;100831.00;;;-3.52;100.00
31538;BME280;18147;51.952;6.146;2022-12-10T02:28:01;100831.13;;;-3.72;100.00
31538;BME280;18147;51.952;6.146;2022-12-10T02:30:29;100830.16;;;-3.57;100.00
31538;BME280;18147;51.952;6.146;2022-12-10T02:32:58;100823.22;;;-3.61;100.00
31538;BME280;18147;51.952;6.146;2022-12-10T02:35:28;100823.25;;;-3.63;100.00
31538;BME280;18147;51.952;6.146;2022-12-10T02:38:01;100830.22;;;-3.60;100.00
31538;BME280;18147;51.952;6.146;2022-12-10T02:40:35;100826.69;;;-3.55;100.00
31538;BME280;18147;51.952;6.146;2022-12-10T02:43:06;100830.13;;;-3.50;100.00
31538;BME280;18147;51.952;6.146;2022-12-10T02:45:33;100832.78;;;-3.56;100.00
31538;BME280;18147;51.952;6.146;2022-12-10T02:48:01;100824.94;;;-3.53;100.00
31538;BME280;18147;51.952;6.146;2022-12-10T02:50:34;100827.50;;;-3.45;100.00
31538;BME280;18147;51.952;6.146;2022-12-10T02:53:01;100830.94;;;-3.39;100.00
31538;BME280;18147;51.952;6.146;2022-12-10T02:55:30;100832.59;;;-3.31;100.00
31538;BME280;18147;51.952;6.146;2022-12-10T02:58:14;100828.28;;;-3.34;100.00
31538;BME280;18147;51.952;6.146;2022-12-10T03:01:02;100825.72;;;-3.35;100.00
31538;BME280;18147;51.952;6.146;2022-12-10T03:03:43;100823.19;;;-3.52;100.00
31538;BME280;18147;51.952;6.146;2022-12-10T03:06:22;100830.94;;;-3.43;100.00
31538;BME280;18147;51.952;6.146;2022-12-10T03:09:00;100824.00;;;-3.41;100.00
31538;BME280;18147;51.952;6.146;2022-12-10T03:11:27;100825.75;;;-3.43;100.00
31538;BME280;18147;51.952;6.146;2022-12-10T03:14:02;100823.16;;;-3.45;100.00
31538;BME280;18147;51.952;6.146;2022-12-10T03:16:34;100817.09;;;-3.50;100.00
31538;BME280;18147;51.952;6.146;2022-12-10T03:19:06;100824.06;;;-3.52;100.00
31538;BME280;18147;51.952;6.146;2022-12-10T03:21:36;100818.88;;;-3.55;100.00
31538;BME280;18147;51.952;6.146;2022-12-10T03:24:08;100822.34;;;-3.51;100.00
31538;BME280;18147;51.952;6.146;2022-12-10T03:26:35;100824.97;;;-3.56;100.00
31538;BME280;18147;51.952;6.146;2022-12-10T03:29:05;100812.81;;;-3.58;100.00
31538;BME280;18147;51.952;6.146;2022-12-10T03:31:33;100816.41;;;-3.76;100.00
31538;BME280;18147;51.952;6.146;2022-12-10T03:34:00;100821.56;;;-3.69;100.00
31538;BME280;18147;51.952;6.146;2022-12-10T03:36:27;100819.78;;;-3.67;100.00
31538;BME280;18147;51.952;6.146;2022-12-10T03:38:54;100825.03;;;-3.70;100.00
31538;BME280;18147;51.952;6.146;2022-12-10T03:41:19;100828.56;;;-3.80;100.00
31538;BME280;18147;51.952;6.146;2022-12-10T03:43:53;100825.97;;;-3.81;100.00
31538;BME280;18147;51.952;6.146;2022-12-10T03:46:19;100833.69;;;-3.68;100.00
31538;BME280;18147;51.952;6.146;2022-12-10T03:48:44;100834.53;;;-3.62;100.00
31538;BME280;18147;51.952;6.146;2022-12-10T03:51:10;100825.03;;;-3.70;100.00
31538;BME280;18147;51.952;6.146;2022-12-10T03:53:36;100830.25;;;-3.70;100.00
31538;BME280;18147;51.952;6.146;2022-12-10T03:56:01;100829.38;;;-3.72;100.00
31538;BME280;18147;51.952;6.146;2022-12-10T03:58:26;100822.47;;;-3.82;100.00
31538;BME280;18147;51.952;6.146;2022-12-10T04:00:52;100825.09;;;-3.82;100.00
31538;BME280;18147;51.952;6.146;2022-12-10T04:03:17;100825.16;;;-3.91;100.00
31538;BME280;18147;51.952;6.146;2022-12-10T04:05:43;100820.81;;;-3.91;100.00
31538;BME280;18147;51.952;6.146;2022-12-10T04:08:08;100821.66;;;-3.88;100.00
31538;BME280;18147;51.952;6.146;2022-12-10T04:10:37;100828.59;;;-3.86;100.00
31538;BME280;18147;51.952;6.146;2022-12-10T04:13:04;100827.75;;;-3.94;100.00
31538;BME280;18147;51.952;6.146;2022-12-10T04:15:48;100829.53;;;-3.99;100.00
31538;BME280;18147;51.952;6.146;2022-12-10T04:18:32;100831.22;;;-3.91;100.00
31538;BME280;18147;51.952;6.146;2022-12-10T04:20:58;100845.13;;;-3.95;100.00
31538;BME280;18147;51.952;6.146;2022-12-10T04:23:42;100839.09;;;-4.04;100.00
31538;BME280;18147;51.952;6.146;2022-12-10T04:26:26;100840.84;;;-4.14;100.00
31538;BME280;18147;51.952;6.146;2022-12-10T04:29:11;100834.75;;;-4.08;100.00
31538;BME280;18147;51.952;6.146;2022-12-10T04:31:36;100839.97;;;-4.08;100.00
31538;BME280;18147;51.952;6.146;2022-12-10T04:34:02;100843.41;;;-4.03;100.00
31538;BME280;18147;51.952;6.146;2022-12-10T04:36:27;100836.44;;;-3.97;100.00
31538;BME280;18147;51.952;6.146;2022-12-10T04:38:53;100837.31;;;-3.92;100.00
31538;BME280;18147;51.952;6.146;2022-12-10T04:41:18;100835.56;;;-3.97;100.00
31538;BME280;18147;51.952;6.146;2022-12-10T04:43:43;100836.47;;;-4.04;100.00
31538;BME280;18147;51.952;6.146;2022-12-10T04:46:10;100833.84;;;-3.91;100.00
31538;BME280;18147;51.952;6.146;2022-12-10T04:48:35;100836.41;;;-3.92;100.00
31538;BME280;18147;51.952;6.146;2022-12-10T04:51:01;100838.19;;;-4.02;100.00
31538;BME280;18147;51.952;6.146;2022-12-10T04:53:27;100847.75;;;-3.99;100.00
31538;BME280;18147;51.952;6.146;2022-12-10T04:55:52;100852.13;;;-4.09;100.00
31538;BME280;18147;51.952;6.146;2022-12-10T04:58:19;100846.06;;;-4.11;100.00
31538;BME280;18147;51.952;6.146;2022-12-10T05:00:45;100853.84;;;-4.03;100.00
31538;BME280;18147;51.952;6.146;2022-12-10T05:03:10;100847.75;;;-4.07;100.00
31538;BME280;18147;51.952;6.146;2022-12-10T05:05:36;100851.22;;;-4.02;100.00
31538;BME280;18147;51.952;6.146;2022-12-10T05:08:01;100855.59;;;-4.05;100.00
31538;BME280;18147;51.952;6.146;2022-12-10T05:10:27;100856.47;;;-4.09;100.00
31538;BME280;18147;51.952;6.146;2022-12-10T05:12:52;100855.59;;;-4.13;100.00
31538;BME280;18147;51.952;6.146;2022-12-10T05:15:18;100860.81;;;-4.18;100.00
31538;BME280;18147;51.952;6.146;2022-12-10T05:17:44;100855.63;;;-4.19;100.00
31538;BME280;18147;51.952;6.146;2022-12-10T05:20:09;100855.59;;;-4.13;100.00
31538;BME280;18147;51.952;6.146;2022-12-10T05:22:35;100852.13;;;-4.13;100.00
31538;BME280;18147;51.952;6.146;2022-12-10T05:25:19;100857.34;;;-4.13;100.00
31538;BME280;18147;51.952;6.146;2022-12-10T05:27:45;100858.22;;;-4.10;100.00
31538;BME280;18147;51.952;6.146;2022-12-10T05:30:11;100852.13;;;-4.13;100.00
31538;BME280;18147;51.952;6.146;2022-12-10T05:32:36;100855.63;;;-4.18;100.00
31538;BME280;18147;51.952;6.146;2022-12-10T05:35:02;100855.63;;;-4.18;100.00
31538;BME280;18147;51.952;6.146;2022-12-10T05:37:29;100852.16;;;-4.18;100.00
31538;BME280;18147;51.952;6.146;2022-12-10T05:39:55;100850.41;;;-4.19;100.00
31538;BME280;18147;51.952;6.146;2022-12-10T05:42:21;100846.06;;;-4.09;100.00
31538;BME280;18147;51.952;6.146;2022-12-10T05:44:46;100845.19;;;-4.13;100.00
31538;BME280;18147;51.952;6.146;2022-12-10T05:47:14;100850.44;;;-4.24;100.00
31538;BME280;18147;51.952;6.146;2022-12-10T05:49:39;100847.81;;;-4.19;100.00
31538;BME280;18147;51.952;6.146;2022-12-10T05:52:05;100853.00;;;-4.18;100.00
31538;BME280;18147;51.952;6.146;2022-12-10T05:54:30;100851.31;;;-4.26;100.00
31538;BME280;18147;51.952;6.146;2022-12-10T05:56:56;100858.22;;;-4.19;100.00
31538;BME280;18147;51.952;6.146;2022-12-10T05:59:24;100865.97;;;-4.07;100.00
31538;BME280;18147;51.952;6.146;2022-12-10T06:01:49;100853.78;;;-3.93;100.00
31538;BME280;18147;51.952;6.146;2022-12-10T06:04:15;100851.13;;;-3.76;100.00
31538;BME280;18147;51.952;6.146;2022-12-10T06:06:41;100854.50;;;-3.61;100.00
31538;BME280;18147;51.952;6.146;2022-12-10T06:09:11;100855.34;;;-3.55;100.00
31538;BME280;18147;51.952;6.146;2022-12-10T06:11:37;100851.78;;;-3.42;100.00
31538;BME280;18147;51.952;6.146;2022-12-10T06:14:02;100857.84;;;-3.33;100.00
31538;BME280;18147;51.952;6.146;2022-12-10T06:16:28;100860.41;;;-3.26;100.00
31538;BME280;18147;51.952;6.146;2022-12-10T06:18:54;100852.56;;;-3.24;100.00
31538;BME280;18147;51.952;6.146;2022-12-10T06:21:20;100856.00;;;-3.16;100.00
31538;BME280;18147;51.952;6.146;2022-12-10T06:23:50;100843.81;;;-3.19;100.00
31538;BME280;18147;51.952;6.146;2022-12-10T06:26:25;100854.22;;;-3.17;100.00
31538;BME280;18147;51.952;6.146;2022-12-10T06:28:52;100855.09;;;-3.17;100.00
31538;BME280;18147;51.952;6.146;2022-12-10T06:31:18;100862.91;;;-3.10;100.00
31538;BME280;18147;51.952;6.146;2022-12-10T06:33:43;100859.38;;;-3.05;100.00
31538;BME280;18147;51.952;6.146;2022-12-10T06:36:11;100862.00;;;-3.05;100.00
31538;BME280;18147;51.952;6.146;2022-12-10T06:38:36;100864.53;;;-2.99;100.00
31538;BME280;18147;51.952;6.146;2022-12-10T06:41:08;100873.22;;;-2.97;100.00
31538;BME280;18147;51.952;6.146;2022-12-10T06:43:34;100875.06;;;-3.11;100.00
31538;BME280;18147;51.952;6.146;2022-12-10T06:46:07;100881.97;;;-3.04;100.00
31538;BME280;18147;51.952;6.146;2022-12-10T06:48:33;100888.03;;;-3.03;100.00
31538;BME280;18147;51.952;6.146;2022-12-10T06:50:59;100884.56;;;-3.02;100.00
31538;BME280;18147;51.952;6.146;2022-12-10T06:53:25;100886.22;;;-2.91;100.00
31538;BME280;18147;51.952;6.146;2022-12-10T06:55:50;100894.09;;;-2.95;100.00
31538;BME280;18147;51.952;6.146;2022-12-10T06:58:19;100892.31;;;-2.92;100.00
31538;BME280;18147;51.952;6.146;2022-12-10T07:00:44;100887.06;;;-2.87;100.00
31538;BME280;18147;51.952;6.146;2022-12-10T07:03:09;100889.72;;;-2.93;100.00
31538;BME280;18147;51.952;6.146;2022-12-10T07:05:35;100890.53;;;-2.87;100.00
31538;BME280;18147;51.952;6.146;2022-12-10T07:08:00;100891.34;;;-2.80;100.00
31538;BME280;18147;51.952;6.146;2022-12-10T07:10:26;100895.66;;;-2.74;100.00
31538;BME280;18147;51.952;6.146;2022-12-10T07:12:51;100899.13;;;-2.74;100.00
31538;BME280;18147;51.952;6.146;2022-12-10T07:15:17;100895.63;;;-2.71;100.00
31538;BME280;18147;51.952;6.146;2022-12-10T07:17:42;100902.59;;;-2.73;100.00
31538;BME280;18147;51.952;6.146;2022-12-10T07:20:08;100910.44;;;-2.73;100.00
31538;BME280;18147;51.952;6.146;2022-12-10T07:22:43;100910.47;;;-2.79;100.00
31538;BME280;18147;51.952;6.146;2022-12-10T07:25:08;100921.84;;;-2.85;100.00
31538;BME280;18147;51.952;6.146;2022-12-10T07:27:34;100922.66;;;-2.80;100.00
31538;BME280;18147;51.952;6.146;2022-12-10T07:29:59;100924.38;;;-2.77;100.00
31538;BME280;18147;51.952;6.146;2022-12-10T07:32:27;100929.63;;;-2.82;100.00
31538;BME280;18147;51.952;6.146;2022-12-10T07:34:52;100926.16;;;-2.81;100.00
31538;BME280;18147;51.952;6.146;2022-12-10T07:37:18;100933.09;;;-2.80;100.00
31538;BME280;18147;51.952;6.146;2022-12-10T07:39:43;100933.03;;;-2.72;100.00
31538;BME280;18147;51.952;6.146;2022-12-10T07:42:09;100940.88;;;-2.71;100.00
31538;BME280;18147;51.952;6.146;2022-12-10T07:44:37;100940.06;;;-2.80;100.00
31538;BME280;18147;51.952;6.146;2022-12-10T07:47:05;100937.41;;;-2.74;100.00
31538;BME280;18147;51.952;6.146;2022-12-10T07:49:30;100942.59;;;-2.73;100.00
31538;BME280;18147;51.952;6.146;2022-12-10T07:51:56;100935.66;;;-2.71;100.00
31538;BME280;18147;51.952;6.146;2022-12-10T07:54:21;100934.75;;;-2.68;100.00
31538;BME280;18147;51.952;6.146;2022-12-10T07:56:47;100941.69;;;-2.64;100.00
31538;BME280;18147;51.952;6.146;2022-12-10T07:59:12;100946.03;;;-2.66;100.00
31538;BME280;18147;51.952;6.146;2022-12-10T08:01:38;100943.38;;;-2.62;100.00
31538;BME280;18147;51.952;6.146;2022-12-10T08:04:04;100947.72;;;-2.57;100.00
31538;BME280;18147;51.952;6.146;2022-12-10T08:06:29;100946.84;;;-2.55;100.00
31538;BME280;18147;51.952;6.146;2022-12-10T08:08:57;100952.94;;;-2.59;100.00
31538;BME280;18147;51.952;6.146;2022-12-10T08:11:23;100951.22;;;-2.60;100.00
31538;BME280;18147;51.952;6.146;2022-12-10T08:13:49;100964.28;;;-2.63;100.00
31538;BME280;18147;51.952;6.146;2022-12-10T08:16:19;100971.31;;;-2.70;100.00
31538;BME280;18147;51.952;6.146;2022-12-10T08:18:45;100966.97;;;-2.71;100.00
31538;BME280;18147;51.952;6.146;2022-12-10T08:21:14;100972.13;;;-2.65;100.00
31538;BME280;18147;51.952;6.146;2022-12-10T08:23:40;100974.72;;;-2.60;100.00
31538;BME280;18147;51.952;6.146;2022-12-10T08:26:10;100974.81;;;-2.77;100.00
31538;BME280;18147;51.952;6.146;2022-12-10T08:28:36;100974.81;;;-2.77;100.00
31538;BME280;18147;51.952;6.146;2022-12-10T08:31:03;100975.63;;;-2.69;100.00
31538;BME280;18147;51.952;6.146;2022-12-10T08:33:28;100985.19;;;-2.68;100.00
31538;BME280;18147;51.952;6.146;2022-12-10T08:36:01;100984.28;;;-2.61;100.00
31538;BME280;18147;51.952;6.146;2022-12-10T08:38:30;100986.88;;;-2.56;100.00
31538;BME280;18147;51.952;6.146;2022-12-10T08:40:55;100985.06;;;-2.49;100.00
31538;BME280;18147;51.952;6.146;2022-12-10T08:43:24;100981.56;;;-2.48;100.00
31538;BME280;18147;51.952;6.146;2022-12-10T08:45:52;100988.56;;;-2.53;100.00
31538;BME280;18147;51.952;6.146;2022-12-10T08:48:19;100992.06;;;-2.53;100.00
31538;BME280;18147;51.952;6.146;2022-12-10T08:50:45;100993.78;;;-2.53;100.00
31538;BME280;18147;51.952;6.146;2022-12-10T08:53:10;101005.88;;;-2.42;100.00
31538;BME280;18147;51.952;6.146;2022-12-10T08:55:39;101007.56;;;-2.33;100.00
31538;BME280;18147;51.952;6.146;2022-12-10T08:58:05;101007.56;;;-2.30;100.00
31538;BME280;18147;51.952;6.146;2022-12-10T09:00:30;101004.84;;;-2.19;100.00
31538;BME280;18147;51.952;6.146;2022-12-10T09:02:56;101004.03;;;-2.24;100.00
31538;BME280;18147;51.952;6.146;2022-12-10T09:05:22;100998.84;;;-2.29;100.00
31538;BME280;18147;51.952;6.146;2022-12-10T09:07:47;100987.44;;;-2.22;100.00
31538;BME280;18147;51.952;6.146;2022-12-10T09:10:13;101001.38;;;-2.23;100.00
31538;BME280;18147;51.952;6.146;2022-12-10T09:12:38;101000.34;;;-2.03;100.00
31538;BME280;18147;51.952;6.146;2022-12-10T09:15:05;100999.50;;;-2.05;100.00
31538;BME280;18147;51.952;6.146;2022-12-10T09:17:31;101007.31;;;-2.02;100.00
31538;BME280;18147;51.952;6.146;2022-12-10T09:19:56;100996.78;;;-1.95;100.00
31538;BME280;18147;51.952;6.146;2022-12-10T09:22:22;101004.59;;;-1.93;100.00
31538;BME280;18147;51.952;6.146;2022-12-10T09:24:47;101005.34;;;-1.82;100.00
31538;BME280;18147;51.952;6.146;2022-12-10T09:27:13;101011.50;;;-1.85;100.00
31538;BME280;18147;51.952;6.146;2022-12-10T09:29:38;101010.63;;;-1.85;100.00
31538;BME280;18147;51.952;6.146;2022-12-10T09:32:04;101007.09;;;-1.83;100.00
31538;BME280;18147;51.952;6.146;2022-12-10T09:34:29;101009.78;;;-1.86;100.00
31538;BME280;18147;51.952;6.146;2022-12-10T09:36:55;101013.13;;;-1.73;100.00
31538;BME280;18147;51.952;6.146;2022-12-10T09:39:20;101006.06;;;-1.66;100.00
31538;BME280;18147;51.952;6.146;2022-12-10T09:42:23;101006.00;;;-1.59;100.00
31538;BME280;18147;51.952;6.146;2022-12-10T09:50:28;101009.44;;;-1.57;100.00
31538;BME280;18147;51.952;6.146;2022-12-10T09:52:57;101013.75;;;-1.52;100.00
31538;BME280;18147;51.952;6.146;2022-12-10T09:55:37;101017.28;;;-1.57;100.00
31538;BME280;18147;51.952;6.146;2022-12-10T09:58:05;101018.06;;;-1.45;100.00
31538;BME280;18147;51.952;6.146;2022-12-10T10:00:39;101016.31;;;-1.48;100.00
31538;BME280;18147;51.952;6.146;2022-12-10T10:03:13;101013.75;;;-1.49;100.00
31538;BME280;18147;51.952;6.146;2022-12-10T10:05:44;101006.78;;;-1.52;100.00
31538;BME280;18147;51.952;6.146;2022-12-10T10:10:55;101016.22;;;-1.39;100.00
31538;BME280;18147;51.952;6.146;2022-12-10T10:13:40;101011.06;;;-1.43;100.00
31538;BME280;18147;51.952;6.146;2022-12-10T10:16:16;101010.28;;;-1.53;100.00
31538;BME280;18147;51.952;6.146;2022-12-10T10:19:25;101013.63;;;-1.39;100.00
31538;BME280;18147;51.952;6.146;2022-12-10T10:21:51;101011.69;;;-1.26;100.00
31538;BME280;18147;51.952;6.146;2022-12-10T10:24:19;101016.19;;;-1.36;100.00
31538;BME280;18147;51.952;6.146;2022-12-10T10:26:46;101022.22;;;-1.29;100.00
31538;BME280;18147;51.952;6.146;2022-12-10T10:29:15;101021.41;;;-1.34;100.00
31538;BME280;18147;51.952;6.146;2022-12-10T10:31:42;101020.47;;;-1.28;100.00
31538;BME280;18147;51.952;6.146;2022-12-10T10:34:18;101020.47;;;-1.28;100.00
31538;BME280;18147;51.952;6.146;2022-12-10T10:36:44;101027.41;;;-1.24;100.00
31538;BME280;18147;51.952;6.146;2022-12-10T10:41:42;101022.97;;;-1.21;100.00
31538;BME280;18147;51.952;6.146;2022-12-10T10:44:19;101027.22;;;-1.09;100.00
31538;BME280;18147;51.952;6.146;2022-12-10T10:46:48;101024.63;;;-1.12;100.00
31538;BME280;18147;51.952;6.146;2022-12-10T10:49:31;101018.44;;;-1.05;100.00
31538;BME280;18147;51.952;6.146;2022-12-10T10:52:05;101026.34;;;-1.11;100.00
31538;BME280;18147;51.952;6.146;2022-12-10T10:57:06;101029.81;;;-1.08;100.00
31538;BME280;18147;51.952;6.146;2022-12-10T10:59:37;101026.19;;;-0.97;100.00
31538;BME280;18147;51.952;6.146;2022-12-10T11:04:48;101022.66;;;-0.95;100.00
31538;BME280;18147;51.952;6.146;2022-12-10T11:07:22;101020.91;;;-0.96;100.00
31538;BME280;18147;51.952;6.146;2022-12-10T11:09:49;101024.34;;;-0.91;100.00
31538;BME280;18147;51.952;6.146;2022-12-10T11:12:41;101018.28;;;-0.93;100.00
31538;BME280;18147;51.952;6.146;2022-12-10T11:17:49;101014.66;;;-0.86;100.00
31538;BME280;18147;51.952;6.146;2022-12-10T11:22:51;101007.78;;;-0.90;100.00
31538;BME280;18147;51.952;6.146;2022-12-10T11:25:18;101014.81;;;-0.95;100.00
31538;BME280;18147;51.952;6.146;2022-12-10T11:30:20;101015.81;;;-1.07;100.00
31538;BME280;18147;51.952;6.146;2022-12-10T11:33:15;101004.41;;;-1.01;100.00
31538;BME280;18147;51.952;6.146;2022-12-10T11:36:13;101001.06;;;-1.12;100.00
31538;BME280;18147;51.952;6.146;2022-12-10T11:38:54;101002.47;;;-0.85;100.00
31538;BME280;18147;51.952;6.146;2022-12-10T11:47:08;100998.00;;;-0.79;100.00
31538;BME280;18147;51.952;6.146;2022-12-10T11:49:48;100999.69;;;-0.74;100.00
31538;BME280;18147;51.952;6.146;2022-12-10T11:52:20;101001.34;;;-0.70;100.00
31538;BME280;18147;51.952;6.146;2022-12-10T11:57:48;100998.97;;;-0.86;100.00
31538;BME280;18147;51.952;6.146;2022-12-10T12:00:23;100998.66;;;-0.63;100.00
31538;BME280;18147;51.952;6.146;2022-12-10T12:11:39;100998.66;;;-0.63;100.00
31538;BME280;18147;51.952;6.146;2022-12-10T12:16:55;100995.91;;;-0.54;100.00
31538;BME280;18147;51.952;6.146;2022-12-10T12:19:39;100997.72;;;-0.59;100.00
31538;BME280;18147;51.952;6.146;2022-12-10T12:22:13;100998.69;;;-0.66;100.00
31538;BME280;18147;51.952;6.146;2022-12-10T12:24:41;100999.69;;;-0.76;100.00
31538;BME280;18147;51.952;6.146;2022-12-10T12:27:24;101004.94;;;-0.74;100.00
31538;BME280;18147;51.952;6.146;2022-12-10T12:30:21;101006.00;;;-0.91;100.00
31538;BME280;18147;51.952;6.146;2022-12-10T12:32:57;101004.38;;;-0.98;100.00
31538;BME280;18147;51.952;6.146;2022-12-10T12:40:57;101007.09;;;-1.04;100.00
31538;BME280;18147;51.952;6.146;2022-12-10T12:43:40;101001.66;;;-0.92;100.00
31538;BME280;18147;51.952;6.146;2022-12-10T12:46:18;101001.59;;;-0.86;100.00
31538;BME280;18147;51.952;6.146;2022-12-10T12:48:56;100998.97;;;-0.84;100.00
31538;BME280;18147;51.952;6.146;2022-12-10T12:51:39;101002.41;;;-0.82;100.00
31538;BME280;18147;51.952;6.146;2022-12-10T12:54:10;100996.44;;;-0.92;100.00
31538;BME280;18147;51.952;6.146;2022-12-10T12:56:59;101004.22;;;-0.87;100.00
31538;BME280;18147;51.952;6.146;2022-12-10T12:59:31;101006.69;;;-0.76;100.00
31538;BME280;18147;51.952;6.146;2022-12-10T13:04:59;101001.69;;;-0.93;100.00
31538;BME280;18147;51.952;6.146;2022-12-10T13:07:27;101008.66;;;-0.92;100.00
31538;BME280;18147;51.952;6.146;2022-12-10T13:10:16;101010.38;;;-0.90;100.00
31538;BME280;18147;51.952;6.146;2022-12-10T13:12:48;101008.59;;;-0.88;100.00
31538;BME280;18147;51.952;6.146;2022-12-10T13:18:19;101006.16;;;-1.01;100.00
31538;BME280;18147;51.952;6.146;2022-12-10T13:28:50;101017.38;;;-0.90;100.00
31538;BME280;18147;51.952;6.146;2022-12-10T13:34:04;101016.41;;;-0.83;100.00
31538;BME280;18147;51.952;6.146;2022-12-10T13:41:23;101014.66;;;-0.84;100.00
31538;BME280;18147;51.952;6.146;2022-12-10T13:50:05;101025.31;;;-0.98;100.00
31538;BME280;18147;51.952;6.146;2022-12-10T13:55:46;101031.53;;;-1.07;100.00
31538;BME280;18147;51.952;6.146;2022-12-10T13:58:27;101028.03;;;-1.07;100.00
31538;BME280;18147;51.952;6.146;2022-12-10T14:01:11;101030.56;;;-1.01;100.00
31538;BME280;18147;51.952;6.146;2022-12-10T14:04:16;101030.50;;;-0.93;100.00
31538;BME280;18147;51.952;6.146;2022-12-10T14:06:47;101028.66;;;-0.85;100.00
31538;BME280;18147;51.952;6.146;2022-12-10T14:09:21;101033.00;;;-0.84;100.00
31538;BME280;18147;51.952;6.146;2022-12-10T14:14:56;101039.38;;;-1.05;100.00
31538;BME280;18147;51.952;6.146;2022-12-10T14:17:31;101046.25;;;-0.98;100.00
31538;BME280;18147;51.952;6.146;2022-12-10T14:19:58;101054.03;;;-0.93;100.00
31538;BME280;18147;51.952;6.146;2022-12-10T14:24:58;101049.59;;;-0.85;100.00
31538;BME280;18147;51.952;6.146;2022-12-10T14:27:26;101046.09;;;-0.84;100.00
31538;BME280;18147;51.952;6.146;2022-12-10T14:29:59;101050.66;;;-1.01;100.00
31538;BME280;18147;51.952;6.146;2022-12-10T14:32:30;101051.47;;;-0.96;100.00